sensor_id;sensor_type;location;lat;lon;timestamp;temperature;humidity
6756;DHT22;3415;51.148;7.014;2022-11-21T00:00:34;6.80;99.90
6756;DHT22;3415;51.148;7.014;2022-11-21T00:03:01;6.90;99.90
6756;DHT22;3415;51.148;7.014;2022-11-21T00:05:30;6.80;99.90
6756;DHT22;3415;51.148;7.014;2022-11-21T00:07:58;6.80;99.90
6756;DHT22;3415;51.148;7.014;2022-11-21T00:10:25;6.80;99.90
6756;DHT22;3415;51.148;7.014;2022-11-21T00:12:53;6.80;99.90
6756;DHT22;3415;51.148;7.014;2022-11-21T00:15:21;6.80;99.90
6756;DHT22;3415;51.148;7.014;2022-11-21T00:17:48;6.80;99.90
6756;DHT22;3415;51.148;7.014;2022-11-21T00:20:16;6.80;99.90
6756;DHT22;3415;51.148;7.014;2022-11-21T00:22:45;6.80;99.90
6756;DHT22;3415;51.148;7.014;2022-11-21T00:25:12;7.00;99.90
6756;DHT22;3415;51.148;7.014;2022-11-21T00:27:40;6.60;99.90
6756;DHT22;3415;51.148;7.014;2022-11-21T00:30:09;6.50;99.90
6756;DHT22;3415;51.148;7.014;2022-11-21T00:32:36;6.50;99.90
6756;DHT22;3415;51.148;7.014;2022-11-21T00:35:04;6.40;99.90
6756;DHT22;3415;51.148;7.014;2022-11-21T00:37:32;6.40;99.90
6756;DHT22;3415;51.148;7.014;2022-11-21T00:40:01;6.30;99.90
6756;DHT22;3415;51.148;7.014;2022-11-21T00:42:28;6.30;99.90
6756;DHT22;3415;51.148;7.014;2022-11-21T00:47:22;6.30;99.90
6756;DHT22;3415;51.148;7.014;2022-11-21T00:49:49;6.10;99.90
6756;DHT22;3415;51.148;7.014;2022-11-21T00:52:17;6.10;99.90
6756;DHT22;3415;51.148;7.014;2022-11-21T00:54:44;6.10;99.90
6756;DHT22;3415;51.148;7.014;2022-11-21T00:57:12;6.00;99.90
6756;DHT22;3415;51.148;7.014;2022-11-21T00:59:39;6.30;99.90
6756;DHT22;3415;51.148;7.014;2022-11-21T01:02:06;6.00;99.90
6756;DHT22;3415;51.148;7.014;2022-11-21T01:04:33;6.00;99.90
6756;DHT22;3415;51.148;7.014;2022-11-21T01:07:01;5.90;99.90
6756;DHT22;3415;51.148;7.014;2022-11-21T01:09:28;6.00;99.90
6756;DHT22;3415;51.148;7.014;2022-11-21T01:11:55;6.00;99.90
6756;DHT22;3415;51.148;7.014;2022-11-21T01:14:23;6.00;99.90
6756;DHT22;3415;51.148;7.014;2022-11-21T01:16:50;6.00;99.90
6756;DHT22;3415;51.148;7.014;2022-11-21T01:19:17;5.90;99.90
6756;DHT22;3415;51.148;7.014;2022-11-21T01:21:44;5.80;99.90
6756;DHT22;3415;51.148;7.014;2022-11-21T01:24:11;5.80;99.90
6756;DHT22;3415;51.148;7.014;2022-11-21T01:26:38;5.90;99.90
6756;DHT22;3415;51.148;7.014;2022-11-21T01:29:05;5.80;99.90
6756;DHT22;3415;51.148;7.014;2022-11-21T01:31:34;5.80;99.90
6756;DHT22;3415;51.148;7.014;2022-11-21T01:34:01;5.70;99.90
6756;DHT22;3415;51.148;7.014;2022-11-21T01:36:30;5.70;99.90
6756;DHT22;3415;51.148;7.014;2022-11-21T01:38:59;5.70;99.90
6756;DHT22;3415;51.148;7.014;2022-11-21T01:41:29;5.70;99.90
6756;DHT22;3415;51.148;7.014;2022-11-21T01:46:25;5.70;99.90
6756;DHT22;3415;51.148;7.014;2022-11-21T01:48:56;5.70;99.90
6756;DHT22;3415;51.148;7.014;2022-11-21T01:51:30;5.70;99.90
6756;DHT22;3415;51.148;7.014;2022-11-21T01:54:01;5.70;99.90
6756;DHT22;3415;51.148;7.014;2022-11-21T01:56:32;5.70;99.90
6756;DHT22;3415;51.148;7.014;2022-11-21T01:59:03;5.60;99.90
6756;DHT22;3415;51.148;7.014;2022-11-21T02:01:31;5.60;99.90
6756;DHT22;3415;51.148;7.014;2022-11-21T02:04:02;5.50;99.90
6756;DHT22;3415;51.148;7.014;2022-11-21T02:06:31;5.60;99.90
6756;DHT22;3415;51.148;7.014;2022-11-21T02:08:59;5.50;99.90
6756;DHT22;3415;51.148;7.014;2022-11-21T02:11:31;5.50;99.90
6756;DHT22;3415;51.148;7.014;2022-11-21T02:14:02;5.50;99.90
6756;DHT22;3415;51.148;7.014;2022-11-21T02:16:29;6.70;99.90
6756;DHT22;3415;51.148;7.014;2022-11-21T02:18:56;5.50;99.90
6756;DHT22;3415;51.148;7.014;2022-11-21T02:21:33;5.50;99.90
6756;DHT22;3415;51.148;7.014;2022-11-21T02:24:12;5.60;99.90
6756;DHT22;3415;51.148;7.014;2022-11-21T02:26:45;5.60;99.90
6756;DHT22;3415;51.148;7.014;2022-11-21T02:31:41;5.50;99.90
6756;DHT22;3415;51.148;7.014;2022-11-21T02:34:08;5.50;99.90
6756;DHT22;3415;51.148;7.014;2022-11-21T02:36:40;5.50;99.90
6756;DHT22;3415;51.148;7.014;2022-11-21T02:39:13;5.50;99.90
6756;DHT22;3415;51.148;7.014;2022-11-21T02:41:50;5.40;99.90
6756;DHT22;3415;51.148;7.014;2022-11-21T02:44:24;5.40;99.90
6756;DHT22;3415;51.148;7.014;2022-11-21T02:49:28;5.40;99.90
6756;DHT22;3415;51.148;7.014;2022-11-21T02:51:57;5.40;99.90
6756;DHT22;3415;51.148;7.014;2022-11-21T02:54:24;5.40;99.90
6756;DHT22;3415;51.148;7.014;2022-11-21T02:56:53;5.40;99.90
6756;DHT22;3415;51.148;7.014;2022-11-21T02:59:20;5.40;99.90
6756;DHT22;3415;51.148;7.014;2022-11-21T03:01:48;5.40;99.90
6756;DHT22;3415;51.148;7.014;2022-11-21T03:04:14;5.30;99.90
6756;DHT22;3415;51.148;7.014;2022-11-21T03:06:41;5.40;99.90
6756;DHT22;3415;51.148;7.014;2022-11-21T03:09:08;5.30;99.90
6756;DHT22;3415;51.148;7.014;2022-11-21T03:11:37;5.30;99.90
6756;DHT22;3415;51.148;7.014;2022-11-21T03:14:05;5.20;99.90
6756;DHT22;3415;51.148;7.014;2022-11-21T03:16:32;5.20;99.90
6756;DHT22;3415;51.148;7.014;2022-11-21T03:18:59;5.20;99.90
6756;DHT22;3415;51.148;7.014;2022-11-21T03:21:26;5.30;99.90
6756;DHT22;3415;51.148;7.014;2022-11-21T03:23:53;5.20;99.90
6756;DHT22;3415;51.148;7.014;2022-11-21T03:26:20;5.20;99.90
6756;DHT22;3415;51.148;7.014;2022-11-21T03:28:47;5.20;99.90
6756;DHT22;3415;51.148;7.014;2022-11-21T03:31:15;5.10;99.90
6756;DHT22;3415;51.148;7.014;2022-11-21T03:33:42;5.10;99.90
6756;DHT22;3415;51.148;7.014;2022-11-21T03:36:09;5.10;99.90
6756;DHT22;3415;51.148;7.014;2022-11-21T03:38:36;5.20;99.90
6756;DHT22;3415;51.148;7.014;2022-11-21T03:41:03;5.20;99.90
6756;DHT22;3415;51.148;7.014;2022-11-21T03:43:51;5.20;99.90
6756;DHT22;3415;51.148;7.014;2022-11-21T03:46:19;5.20;99.90
6756;DHT22;3415;51.148;7.014;2022-11-21T03:48:46;5.20;99.90
6756;DHT22;3415;51.148;7.014;2022-11-21T03:51:13;5.20;99.90
6756;DHT22;3415;51.148;7.014;2022-11-21T03:53:40;5.20;99.90
6756;DHT22;3415;51.148;7.014;2022-11-21T03:56:07;5.20;99.90
6756;DHT22;3415;51.148;7.014;2022-11-21T03:58:34;5.10;99.90
6756;DHT22;3415;51.148;7.014;2022-11-21T04:01:01;5.10;99.90
6756;DHT22;3415;51.148;7.014;2022-11-21T04:03:30;5.20;99.90
6756;DHT22;3415;51.148;7.014;2022-11-21T04:05:57;5.10;99.90
6756;DHT22;3415;51.148;7.014;2022-11-21T04:08:24;5.10;99.90
6756;DHT22;3415;51.148;7.014;2022-11-21T04:10:52;5.10;99.90
6756;DHT22;3415;51.148;7.014;2022-11-21T04:13:20;5.10;99.90
6756;DHT22;3415;51.148;7.014;2022-11-21T04:15:47;5.10;99.90
6756;DHT22;3415;51.148;7.014;2022-11-21T04:18:14;5.20;99.90
6756;DHT22;3415;51.148;7.014;2022-11-21T04:20:42;5.20;99.90
6756;DHT22;3415;51.148;7.014;2022-11-21T04:23:09;5.20;99.90
6756;DHT22;3415;51.148;7.014;2022-11-21T04:25:36;5.20;99.90
6756;DHT22;3415;51.148;7.014;2022-11-21T04:28:04;5.20;99.90
6756;DHT22;3415;51.148;7.014;2022-11-21T04:30:32;5.20;99.90
6756;DHT22;3415;51.148;7.014;2022-11-21T04:33:00;5.20;99.90
6756;DHT22;3415;51.148;7.014;2022-11-21T04:37:55;5.10;99.90
6756;DHT22;3415;51.148;7.014;2022-11-21T04:40:22;5.20;99.90
6756;DHT22;3415;51.148;7.014;2022-11-21T04:42:49;5.10;99.90
6756;DHT22;3415;51.148;7.014;2022-11-21T04:45:17;5.20;99.90
6756;DHT22;3415;51.148;7.014;2022-11-21T04:47:45;5.20;99.90
6756;DHT22;3415;51.148;7.014;2022-11-21T04:50:15;5.20;99.90
6756;DHT22;3415;51.148;7.014;2022-11-21T04:52:48;5.10;99.90
6756;DHT22;3415;51.148;7.014;2022-11-21T04:55:18;5.10;99.90
6756;DHT22;3415;51.148;7.014;2022-11-21T04:57:45;5.10;99.90
6756;DHT22;3415;51.148;7.014;2022-11-21T05:00:13;5.20;99.90
6756;DHT22;3415;51.148;7.014;2022-11-21T05:02:41;5.20;99.90
6756;DHT22;3415;51.148;7.014;2022-11-21T05:05:09;5.10;99.90
6756;DHT22;3415;51.148;7.014;2022-11-21T05:07:36;5.10;99.90
6756;DHT22;3415;51.148;7.014;2022-11-21T05:10:04;5.20;99.90
6756;DHT22;3415;51.148;7.014;2022-11-21T05:12:34;5.20;99.90
6756;DHT22;3415;51.148;7.014;2022-11-21T05:15:19;5.20;99.90
6756;DHT22;3415;51.148;7.014;2022-11-21T05:17:46;5.20;99.90
6756;DHT22;3415;51.148;7.014;2022-11-21T05:20:13;5.20;99.90
6756;DHT22;3415;51.148;7.014;2022-11-21T05:22:40;5.20;99.90
6756;DHT22;3415;51.148;7.014;2022-11-21T05:25:08;5.20;99.90
6756;DHT22;3415;51.148;7.014;2022-11-21T05:27:36;5.20;99.90
6756;DHT22;3415;51.148;7.014;2022-11-21T05:30:04;5.20;99.90
6756;DHT22;3415;51.148;7.014;2022-11-21T05:32:31;5.20;99.90
6756;DHT22;3415;51.148;7.014;2022-11-21T05:34:58;5.20;99.90
6756;DHT22;3415;51.148;7.014;2022-11-21T05:37:25;5.10;99.90
6756;DHT22;3415;51.148;7.014;2022-11-21T05:39:52;5.10;99.90
6756;DHT22;3415;51.148;7.014;2022-11-21T05:42:19;5.10;99.90
6756;DHT22;3415;51.148;7.014;2022-11-21T05:45:08;5.10;99.90
6756;DHT22;3415;51.148;7.014;2022-11-21T05:47:35;5.10;99.90
6756;DHT22;3415;51.148;7.014;2022-11-21T05:50:02;5.10;99.90
6756;DHT22;3415;51.148;7.014;2022-11-21T05:52:29;5.20;99.90
6756;DHT22;3415;51.148;7.014;2022-11-21T05:54:56;5.10;99.90
6756;DHT22;3415;51.148;7.014;2022-11-21T05:57:23;5.00;99.90
6756;DHT22;3415;51.148;7.014;2022-11-21T05:59:50;5.10;99.90
6756;DHT22;3415;51.148;7.014;2022-11-21T06:02:18;5.00;99.90
6756;DHT22;3415;51.148;7.014;2022-11-21T06:05:03;5.10;99.90
6756;DHT22;3415;51.148;7.014;2022-11-21T06:07:31;5.10;99.90
6756;DHT22;3415;51.148;7.014;2022-11-21T06:09:58;5.10;99.90
6756;DHT22;3415;51.148;7.014;2022-11-21T06:12:25;5.20;99.90
6756;DHT22;3415;51.148;7.014;2022-11-21T06:14:52;5.10;99.90
6756;DHT22;3415;51.148;7.014;2022-11-21T06:17:20;5.10;99.90
6756;DHT22;3415;51.148;7.014;2022-11-21T06:19:47;5.10;99.90
6756;DHT22;3415;51.148;7.014;2022-11-21T06:22:14;5.10;99.90
6756;DHT22;3415;51.148;7.014;2022-11-21T06:24:41;5.10;99.90
6756;DHT22;3415;51.148;7.014;2022-11-21T06:27:08;5.10;99.90
6756;DHT22;3415;51.148;7.014;2022-11-21T06:32:02;5.20;99.90
6756;DHT22;3415;51.148;7.014;2022-11-21T06:34:31;5.20;99.90
6756;DHT22;3415;51.148;7.014;2022-11-21T06:36:58;5.20;99.90
6756;DHT22;3415;51.148;7.014;2022-11-21T06:39:25;5.20;99.90
6756;DHT22;3415;51.148;7.014;2022-11-21T06:41:52;5.20;99.90
6756;DHT22;3415;51.148;7.014;2022-11-21T06:44:19;5.20;99.90
6756;DHT22;3415;51.148;7.014;2022-11-21T06:46:46;5.20;99.90
6756;DHT22;3415;51.148;7.014;2022-11-21T06:49:13;5.30;99.90
6756;DHT22;3415;51.148;7.014;2022-11-21T06:51:41;5.30;99.90
6756;DHT22;3415;51.148;7.014;2022-11-21T06:54:08;5.40;99.90
6756;DHT22;3415;51.148;7.014;2022-11-21T06:56:35;5.50;99.90
6756;DHT22;3415;51.148;7.014;2022-11-21T06:59:02;5.50;99.90
6756;DHT22;3415;51.148;7.014;2022-11-21T07:01:29;5.50;99.90
6756;DHT22;3415;51.148;7.014;2022-11-21T07:03:56;5.50;99.90
6756;DHT22;3415;51.148;7.014;2022-11-21T07:06:23;5.50;99.90
6756;DHT22;3415;51.148;7.014;2022-11-21T07:08:53;5.50;99.90
6756;DHT22;3415;51.148;7.014;2022-11-21T07:11:20;5.50;99.90
6756;DHT22;3415;51.148;7.014;2022-11-21T07:13:47;5.50;99.90
6756;DHT22;3415;51.148;7.014;2022-11-21T07:16:13;5.50;99.90
6756;DHT22;3415;51.148;7.014;2022-11-21T07:18:41;5.50;99.90
6756;DHT22;3415;51.148;7.014;2022-11-21T07:21:09;5.50;99.90
6756;DHT22;3415;51.148;7.014;2022-11-21T07:23:36;5.50;99.90
6756;DHT22;3415;51.148;7.014;2022-11-21T07:26:06;5.60;99.90
6756;DHT22;3415;51.148;7.014;2022-11-21T07:28:34;5.60;99.90
6756;DHT22;3415;51.148;7.014;2022-11-21T07:31:01;5.60;99.90
6756;DHT22;3415;51.148;7.014;2022-11-21T07:33:29;5.60;99.90
6756;DHT22;3415;51.148;7.014;2022-11-21T07:35:57;5.50;99.90
6756;DHT22;3415;51.148;7.014;2022-11-21T07:38:24;5.50;99.90
6756;DHT22;3415;51.148;7.014;2022-11-21T07:40:52;5.60;99.90
6756;DHT22;3415;51.148;7.014;2022-11-21T07:43:20;5.60;99.90
6756;DHT22;3415;51.148;7.014;2022-11-21T07:45:47;5.60;99.90
6756;DHT22;3415;51.148;7.014;2022-11-21T07:48:14;5.60;99.90
6756;DHT22;3415;51.148;7.014;2022-11-21T07:50:41;5.60;99.90
6756;DHT22;3415;51.148;7.014;2022-11-21T07:53:09;5.70;99.90
6756;DHT22;3415;51.148;7.014;2022-11-21T07:55:37;5.70;99.90
6756;DHT22;3415;51.148;7.014;2022-11-21T07:58:06;6.00;99.90
6756;DHT22;3415;51.148;7.014;2022-11-21T08:00:38;5.80;99.90
6756;DHT22;3415;51.148;7.014;2022-11-21T08:03:07;5.70;99.90
6756;DHT22;3415;51.148;7.014;2022-11-21T08:05:36;5.80;99.90
6756;DHT22;3415;51.148;7.014;2022-11-21T08:08:04;5.80;99.90
6756;DHT22;3415;51.148;7.014;2022-11-21T08:10:33;5.90;99.90
6756;DHT22;3415;51.148;7.014;2022-11-21T08:13:04;5.90;99.90
6756;DHT22;3415;51.148;7.014;2022-11-21T08:15:31;6.00;99.90
6756;DHT22;3415;51.148;7.014;2022-11-21T08:18:07;6.00;99.90
6756;DHT22;3415;51.148;7.014;2022-11-21T08:20:35;6.10;99.90
6756;DHT22;3415;51.148;7.014;2022-11-21T08:23:04;6.10;99.90
6756;DHT22;3415;51.148;7.014;2022-11-21T08:25:32;6.10;99.90
6756;DHT22;3415;51.148;7.014;2022-11-21T08:27:59;6.00;99.90
6756;DHT22;3415;51.148;7.014;2022-11-21T08:30:27;6.10;99.90
6756;DHT22;3415;51.148;7.014;2022-11-21T08:32:56;6.20;99.90
6756;DHT22;3415;51.148;7.014;2022-11-21T08:35:25;6.20;99.90
6756;DHT22;3415;51.148;7.014;2022-11-21T08:37:54;6.20;99.90
6756;DHT22;3415;51.148;7.014;2022-11-21T08:40:21;6.20;99.90
6756;DHT22;3415;51.148;7.014;2022-11-21T08:42:55;6.10;99.90
6756;DHT22;3415;51.148;7.014;2022-11-21T08:45:22;6.10;99.90
6756;DHT22;3415;51.148;7.014;2022-11-21T08:47:50;6.10;99.90
6756;DHT22;3415;51.148;7.014;2022-11-21T08:50:17;6.20;99.90
6756;DHT22;3415;51.148;7.014;2022-11-21T08:52:46;6.20;99.90
6756;DHT22;3415;51.148;7.014;2022-11-21T08:55:13;6.20;99.90
6756;DHT22;3415;51.148;7.014;2022-11-21T08:57:40;6.20;99.90
6756;DHT22;3415;51.148;7.014;2022-11-21T09:00:09;6.30;99.90
6756;DHT22;3415;51.148;7.014;2022-11-21T09:02:38;6.30;99.90
6756;DHT22;3415;51.148;7.014;2022-11-21T09:05:05;6.30;99.90
6756;DHT22;3415;51.148;7.014;2022-11-21T09:07:33;6.30;99.90
6756;DHT22;3415;51.148;7.014;2022-11-21T09:10:01;6.30;99.90
6756;DHT22;3415;51.148;7.014;2022-11-21T09:12:30;6.40;99.90
6756;DHT22;3415;51.148;7.014;2022-11-21T09:14:57;6.40;99.90
6756;DHT22;3415;51.148;7.014;2022-11-21T09:17:41;6.40;99.90
6756;DHT22;3415;51.148;7.014;2022-11-21T09:20:26;6.50;99.90
6756;DHT22;3415;51.148;7.014;2022-11-21T09:22:53;6.40;99.90
6756;DHT22;3415;51.148;7.014;2022-11-21T09:25:21;6.50;99.90
6756;DHT22;3415;51.148;7.014;2022-11-21T09:27:48;6.60;99.90
6756;DHT22;3415;51.148;7.014;2022-11-21T09:30:15;6.50;99.90
6756;DHT22;3415;51.148;7.014;2022-11-21T09:32:42;6.60;99.90
6756;DHT22;3415;51.148;7.014;2022-11-21T09:37:36;6.70;99.90
6756;DHT22;3415;51.148;7.014;2022-11-21T09:40:05;6.90;99.90
6756;DHT22;3415;51.148;7.014;2022-11-21T09:42:59;6.70;99.90
6756;DHT22;3415;51.148;7.014;2022-11-21T09:45:33;7.00;99.90
6756;DHT22;3415;51.148;7.014;2022-11-21T09:48:03;7.20;99.90
6756;DHT22;3415;51.148;7.014;2022-11-21T09:50:37;7.50;99.90
6756;DHT22;3415;51.148;7.014;2022-11-21T09:53:12;7.90;99.90
6756;DHT22;3415;51.148;7.014;2022-11-21T09:55:44;7.90;99.90
6756;DHT22;3415;51.148;7.014;2022-11-21T09:58:22;7.80;72.30
6756;DHT22;3415;51.148;7.014;2022-11-21T10:00:51;7.70;41.90
6756;DHT22;3415;51.148;7.014;2022-11-21T10:03:20;7.60;41.80
6756;DHT22;3415;51.148;7.014;2022-11-21T10:05:50;7.50;42.00
6756;DHT22;3415;51.148;7.014;2022-11-21T10:08:26;7.60;41.70
6756;DHT22;3415;51.148;7.014;2022-11-21T10:11:02;8.10;39.50
6756;DHT22;3415;51.148;7.014;2022-11-21T10:13:45;8.10;42.70
6756;DHT22;3415;51.148;7.014;2022-11-21T10:16:25;9.70;16.80
6756;DHT22;3415;51.148;7.014;2022-11-21T10:22:44;7.70;1.00
6756;DHT22;3415;51.148;7.014;2022-11-21T10:25:22;7.60;1.00
6756;DHT22;3415;51.148;7.014;2022-11-21T10:27:54;7.70;1.00
6756;DHT22;3415;51.148;7.014;2022-11-21T10:30:24;7.70;1.00
6756;DHT22;3415;51.148;7.014;2022-11-21T10:32:54;7.70;1.80
6756;DHT22;3415;51.148;7.014;2022-11-21T10:35:24;7.70;3.90
6756;DHT22;3415;51.148;7.014;2022-11-21T10:37:57;7.70;1.50
6756;DHT22;3415;51.148;7.014;2022-11-21T10:40:33;7.50;1.00
6756;DHT22;3415;51.148;7.014;2022-11-21T10:43:08;7.40;10.50
6756;DHT22;3415;51.148;7.014;2022-11-21T10:45:58;7.60;13.40
6756;DHT22;3415;51.148;7.014;2022-11-21T10:51:08;7.40;5.10
6756;DHT22;3415;51.148;7.014;2022-11-21T10:53:42;7.30;8.60
6756;DHT22;3415;51.148;7.014;2022-11-21T10:56:27;7.30;10.00
6756;DHT22;3415;51.148;7.014;2022-11-21T10:58:55;7.20;12.80
6756;DHT22;3415;51.148;7.014;2022-11-21T11:01:27;7.40;15.30
6756;DHT22;3415;51.148;7.014;2022-11-21T11:04:06;7.30;15.70
6756;DHT22;3415;51.148;7.014;2022-11-21T11:06:42;7.30;17.20
6756;DHT22;3415;51.148;7.014;2022-11-21T11:09:22;7.40;14.40
6756;DHT22;3415;51.148;7.014;2022-11-21T11:11:50;7.50;12.40
6756;DHT22;3415;51.148;7.014;2022-11-21T11:14:27;7.50;17.20
6756;DHT22;3415;51.148;7.014;2022-11-21T11:16:58;7.70;6.20
6756;DHT22;3415;51.148;7.014;2022-11-21T11:19:28;7.80;7.90
6756;DHT22;3415;51.148;7.014;2022-11-21T11:21:55;7.90;12.60
6756;DHT22;3415;51.148;7.014;2022-11-21T11:24:24;8.00;5.00
6756;DHT22;3415;51.148;7.014;2022-11-21T11:26:57;7.90;1.00
6756;DHT22;3415;51.148;7.014;2022-11-21T11:29:26;7.90;1.00
6756;DHT22;3415;51.148;7.014;2022-11-21T11:31:58;7.80;1.00
6756;DHT22;3415;51.148;7.014;2022-11-21T11:34:35;7.80;1.00
6756;DHT22;3415;51.148;7.014;2022-11-21T11:37:11;7.80;1.00
6756;DHT22;3415;51.148;7.014;2022-11-21T11:39:42;8.00;1.00
6756;DHT22;3415;51.148;7.014;2022-11-21T11:45:52;8.20;1.00
6756;DHT22;3415;51.148;7.014;2022-11-21T11:48:47;8.60;1.00
6756;DHT22;3415;51.148;7.014;2022-11-21T11:51:20;8.60;1.00
6756;DHT22;3415;51.148;7.014;2022-11-21T11:53:52;8.70;1.00
6756;DHT22;3415;51.148;7.014;2022-11-21T11:56:25;8.80;1.00
6756;DHT22;3415;51.148;7.014;2022-11-21T11:58:56;8.90;1.00
6756;DHT22;3415;51.148;7.014;2022-11-21T12:01:31;8.90;1.00
6756;DHT22;3415;51.148;7.014;2022-11-21T12:04:05;8.70;1.00
6756;DHT22;3415;51.148;7.014;2022-11-21T12:06:41;8.70;1.00
6756;DHT22;3415;51.148;7.014;2022-11-21T12:09:17;8.70;1.00
6756;DHT22;3415;51.148;7.014;2022-11-21T12:11:52;8.80;1.00
6756;DHT22;3415;51.148;7.014;2022-11-21T12:14:53;8.70;1.00
6756;DHT22;3415;51.148;7.014;2022-11-21T12:17:47;9.00;1.00
6756;DHT22;3415;51.148;7.014;2022-11-21T12:20:21;9.00;1.00
6756;DHT22;3415;51.148;7.014;2022-11-21T12:22:51;9.20;1.00
6756;DHT22;3415;51.148;7.014;2022-11-21T12:25:23;9.20;1.00
6756;DHT22;3415;51.148;7.014;2022-11-21T12:27:54;9.20;1.00
6756;DHT22;3415;51.148;7.014;2022-11-21T12:30:36;9.00;1.00
6756;DHT22;3415;51.148;7.014;2022-11-21T12:33:19;9.00;1.00
6756;DHT22;3415;51.148;7.014;2022-11-21T12:36:13;8.90;1.00
6756;DHT22;3415;51.148;7.014;2022-11-21T12:42:27;8.70;1.00
6756;DHT22;3415;51.148;7.014;2022-11-21T12:45:36;8.60;1.00
6756;DHT22;3415;51.148;7.014;2022-11-21T12:48:16;8.50;1.00
6756;DHT22;3415;51.148;7.014;2022-11-21T12:54:56;8.20;1.00
6756;DHT22;3415;51.148;7.014;2022-11-21T12:57:43;8.10;1.00
6756;DHT22;3415;51.148;7.014;2022-11-21T13:00:31;8.10;1.00
6756;DHT22;3415;51.148;7.014;2022-11-21T13:03:26;8.10;1.00
6756;DHT22;3415;51.148;7.014;2022-11-21T13:05:58;8.10;1.00
6756;DHT22;3415;51.148;7.014;2022-11-21T13:08:29;8.20;1.00
6756;DHT22;3415;51.148;7.014;2022-11-21T13:11:03;8.20;1.00
6756;DHT22;3415;51.148;7.014;2022-11-21T13:14:01;8.30;1.00
6756;DHT22;3415;51.148;7.014;2022-11-21T13:16:31;8.30;1.00
6756;DHT22;3415;51.148;7.014;2022-11-21T13:19:19;8.30;1.00
6756;DHT22;3415;51.148;7.014;2022-11-21T13:21:50;8.40;1.00
6756;DHT22;3415;51.148;7.014;2022-11-21T13:24:57;8.40;1.00
6756;DHT22;3415;51.148;7.014;2022-11-21T13:27:29;8.40;1.00
6756;DHT22;3415;51.148;7.014;2022-11-21T13:30:23;8.50;1.00
6756;DHT22;3415;51.148;7.014;2022-11-21T13:32:51;8.50;1.00
6756;DHT22;3415;51.148;7.014;2022-11-21T13:38:29;8.40;1.00
6756;DHT22;3415;51.148;7.014;2022-11-21T13:40:57;8.40;1.00
6756;DHT22;3415;51.148;7.014;2022-11-21T13:43:41;8.40;1.00
6756;DHT22;3415;51.148;7.014;2022-11-21T13:46:09;8.30;1.00
6756;DHT22;3415;51.148;7.014;2022-11-21T13:48:56;8.30;1.00
6756;DHT22;3415;51.148;7.014;2022-11-21T13:51:51;8.20;1.00
6756;DHT22;3415;51.148;7.014;2022-11-21T13:54:42;8.20;1.00
6756;DHT22;3415;51.148;7.014;2022-11-21T13:57:32;8.10;1.00
6756;DHT22;3415;51.148;7.014;2022-11-21T14:00:27;8.20;1.00
6756;DHT22;3415;51.148;7.014;2022-11-21T14:03:30;8.20;1.00
6756;DHT22;3415;51.148;7.014;2022-11-21T14:06:16;8.10;1.00
6756;DHT22;3415;51.148;7.014;2022-11-21T14:09:20;8.10;1.00
6756;DHT22;3415;51.148;7.014;2022-11-21T14:11:50;8.10;1.00
6756;DHT22;3415;51.148;7.014;2022-11-21T14:14:32;8.10;1.00
6756;DHT22;3415;51.148;7.014;2022-11-21T14:20:11;8.10;1.00
6756;DHT22;3415;51.148;7.014;2022-11-21T14:22:45;8.00;1.00
6756;DHT22;3415;51.148;7.014;2022-11-21T14:25:36;7.90;1.00
6756;DHT22;3415;51.148;7.014;2022-11-21T14:28:10;8.00;1.00
6756;DHT22;3415;51.148;7.014;2022-11-21T14:30:41;7.90;1.00
6756;DHT22;3415;51.148;7.014;2022-11-21T14:33:29;7.90;1.00
6756;DHT22;3415;51.148;7.014;2022-11-21T14:36:03;7.80;1.00
6756;DHT22;3415;51.148;7.014;2022-11-21T14:38:34;7.70;1.00
6756;DHT22;3415;51.148;7.014;2022-11-21T14:41:23;7.70;1.00
6756;DHT22;3415;51.148;7.014;2022-11-21T14:44:14;7.60;1.00
6756;DHT22;3415;51.148;7.014;2022-11-21T14:46:44;7.60;1.00
6756;DHT22;3415;51.148;7.014;2022-11-21T14:49:21;10.20;1.00
6756;DHT22;3415;51.148;7.014;2022-11-21T14:51:55;7.40;1.00
6756;DHT22;3415;51.148;7.014;2022-11-21T14:54:26;7.40;1.00
6756;DHT22;3415;51.148;7.014;2022-11-21T14:56:57;7.20;1.00
6756;DHT22;3415;51.148;7.014;2022-11-21T14:59:27;7.20;1.00
6756;DHT22;3415;51.148;7.014;2022-11-21T15:01:59;7.10;1.00
6756;DHT22;3415;51.148;7.014;2022-11-21T15:04:30;7.00;1.00
6756;DHT22;3415;51.148;7.014;2022-11-21T15:06:58;7.00;1.00
6756;DHT22;3415;51.148;7.014;2022-11-21T15:09:25;6.80;1.00
6756;DHT22;3415;51.148;7.014;2022-11-21T15:11:58;6.70;1.00
6756;DHT22;3415;51.148;7.014;2022-11-21T15:14:31;4.90;1.00
6756;DHT22;3415;51.148;7.014;2022-11-21T15:17:05;6.70;1.00
6756;DHT22;3415;51.148;7.014;2022-11-21T15:19:36;6.60;1.00
6756;DHT22;3415;51.148;7.014;2022-11-21T15:22:03;6.60;1.00
6756;DHT22;3415;51.148;7.014;2022-11-21T15:24:36;6.60;1.00
6756;DHT22;3415;51.148;7.014;2022-11-21T15:27:28;6.60;1.00
6756;DHT22;3415;51.148;7.014;2022-11-21T15:30:18;6.60;1.00
6756;DHT22;3415;51.148;7.014;2022-11-21T15:33:04;6.40;1.00
6756;DHT22;3415;51.148;7.014;2022-11-21T15:35:40;6.40;1.00
6756;DHT22;3415;51.148;7.014;2022-11-21T15:38:18;6.50;1.00
6756;DHT22;3415;51.148;7.014;2022-11-21T15:40:55;6.50;1.00
6756;DHT22;3415;51.148;7.014;2022-11-21T15:43:41;6.40;1.00
6756;DHT22;3415;51.148;7.014;2022-11-21T15:46:17;6.40;1.00
6756;DHT22;3415;51.148;7.014;2022-11-21T15:48:47;6.30;1.00
6756;DHT22;3415;51.148;7.014;2022-11-21T15:51:15;6.30;1.00
6756;DHT22;3415;51.148;7.014;2022-11-21T15:53:43;6.40;1.00
6756;DHT22;3415;51.148;7.014;2022-11-21T15:56:12;6.50;1.00
6756;DHT22;3415;51.148;7.014;2022-11-21T15:58:41;6.40;1.00
6756;DHT22;3415;51.148;7.014;2022-11-21T16:01:13;6.40;1.00
6756;DHT22;3415;51.148;7.014;2022-11-21T16:03:42;6.30;1.00
6756;DHT22;3415;51.148;7.014;2022-11-21T16:06:11;6.30;1.00
6756;DHT22;3415;51.148;7.014;2022-11-21T16:08:38;6.30;1.00
6756;DHT22;3415;51.148;7.014;2022-11-21T16:11:05;6.20;1.00
6756;DHT22;3415;51.148;7.014;2022-11-21T16:13:32;6.30;1.00
6756;DHT22;3415;51.148;7.014;2022-11-21T16:16:00;6.30;1.00
6756;DHT22;3415;51.148;7.014;2022-11-21T16:18:28;6.30;1.00
6756;DHT22;3415;51.148;7.014;2022-11-21T16:21:04;6.30;1.00
6756;DHT22;3415;51.148;7.014;2022-11-21T16:23:33;6.40;1.00
6756;DHT22;3415;51.148;7.014;2022-11-21T16:26:01;6.40;1.00
6756;DHT22;3415;51.148;7.014;2022-11-21T16:28:28;6.30;1.00
6756;DHT22;3415;51.148;7.014;2022-11-21T16:30:56;6.30;1.00
6756;DHT22;3415;51.148;7.014;2022-11-21T16:33:24;6.30;1.00
6756;DHT22;3415;51.148;7.014;2022-11-21T16:35:51;6.30;1.00
6756;DHT22;3415;51.148;7.014;2022-11-21T16:38:22;6.30;1.00
6756;DHT22;3415;51.148;7.014;2022-11-21T16:40:54;6.30;1.00
6756;DHT22;3415;51.148;7.014;2022-11-21T16:43:22;6.30;1.00
6756;DHT22;3415;51.148;7.014;2022-11-21T16:45:50;6.30;1.00
6756;DHT22;3415;51.148;7.014;2022-11-21T16:48:18;6.30;1.00
6756;DHT22;3415;51.148;7.014;2022-11-21T16:50:45;6.30;1.00
6756;DHT22;3415;51.148;7.014;2022-11-21T16:53:12;6.20;1.00
6756;DHT22;3415;51.148;7.014;2022-11-21T16:55:39;6.30;1.00
6756;DHT22;3415;51.148;7.014;2022-11-21T16:58:08;6.30;1.00
6756;DHT22;3415;51.148;7.014;2022-11-21T17:00:35;6.30;1.00
6756;DHT22;3415;51.148;7.014;2022-11-21T17:03:02;6.30;1.00
6756;DHT22;3415;51.148;7.014;2022-11-21T17:07:56;6.30;1.00
6756;DHT22;3415;51.148;7.014;2022-11-21T17:10:25;6.30;1.00
6756;DHT22;3415;51.148;7.014;2022-11-21T17:12:53;6.30;1.00
6756;DHT22;3415;51.148;7.014;2022-11-21T17:15:21;6.30;1.00
6756;DHT22;3415;51.148;7.014;2022-11-21T17:17:48;6.40;1.00
6756;DHT22;3415;51.148;7.014;2022-11-21T17:22:43;6.40;1.00
6756;DHT22;3415;51.148;7.014;2022-11-21T17:25:10;6.40;1.00
6756;DHT22;3415;51.148;7.014;2022-11-21T17:27:37;6.30;1.00
6756;DHT22;3415;51.148;7.014;2022-11-21T17:30:05;6.30;1.00
6756;DHT22;3415;51.148;7.014;2022-11-21T17:32:34;6.40;1.00
6756;DHT22;3415;51.148;7.014;2022-11-21T17:35:02;6.40;1.00
6756;DHT22;3415;51.148;7.014;2022-11-21T17:37:29;6.30;1.00